Аэропорт: Усть-Каменогорск. Усть-Каменогорск

ICAO: UASK

METAR:
2022-06-26 10:30:00
UASK 261030Z 13008MPS 9999 SCT050CB BKN130 32/15 Q1003 NOSIG RMK QFE727/0970
METAR:
Информация по данной станции не доступна